Burrville, Tennessee
Current Conditions -  °F | °C
As of 6:53 PM on Saturday 25 Oct 2014 (Local Time) from KCSV Reporting Station
Clear Clear  
Wind Chill: 63°   Ceiling: Unl
Heat Index: 63°   Visibility: 10mi
Dew Point: 55°   Wind: 3mph
Humidity: 75%   Direction: 270°W
Pressure: 30.05"   Gusts: NA
Location:  36.273°N, 84.7037°W
Report Text: KCSV 252253Z AUTO 27003KT 10SM CLR 17/13 A3005 RMK AO2 SLP173 T01720128
Loading
Personal Weather Stations






























Interactive Weather Map
Tropical Storm Tracking
New forecast layout! Learn more

10-Day Weather Forecast

Advertisements
Track Severe Weather on mobile